Rose Hill, Mississippi
Current Conditions -  °F | °C
As of 8:58 AM on Thursday 23 Oct 2014 (Local Time) from KMEI Reporting Station
Clear Clear  
Wind Chill: 50°   Ceiling: Unl
Heat Index: 50°   Visibility: 10mi
Dew Point: 45°   Wind: 5mph
Humidity: 83%   Direction: 340°NNW
Pressure: 30.17"   Gusts: NA
Location:  32.14°N, 89°W
Report Text: KMEI 231358Z 34004KT 10SM CLR 10/07 A3017 RMK AO2 SLP214 T01000072
Loading
Personal Weather Stations






























Interactive Weather Map
Tropical Storm Tracking
New forecast layout! Learn more

10-Day Weather Forecast

Advertisements
Track Severe Weather on mobile